createdAt,value
2023-03-02T00:01:08.336Z,139.27
2023-03-02T00:06:11.146Z,140.07
2023-03-02T00:11:15.631Z,139.13
2023-03-02T00:16:18.296Z,125.47
2023-03-02T00:21:21.128Z,134.87
2023-03-02T00:26:23.941Z,145.23
2023-03-02T00:31:26.781Z,151.80
2023-03-02T00:36:30.407Z,154.40
2023-03-02T00:41:33.049Z,160.80
2023-03-02T00:46:35.920Z,123.77
2023-03-02T00:51:38.894Z,144.67
2023-03-02T00:56:41.494Z,151.50
2023-03-02T01:01:44.598Z,140.60
2023-03-02T01:06:47.859Z,138.60
2023-03-02T01:11:50.813Z,107.47
2023-03-02T01:16:53.858Z,138.73
2023-03-02T01:21:56.618Z,147.23
2023-03-02T01:26:59.333Z,136.40
2023-03-02T01:32:02.824Z,136.93
2023-03-02T01:37:05.379Z,139.27
2023-03-02T01:42:08.013Z,137.03
2023-03-02T01:47:16.259Z,141.70
2023-03-02T01:52:27.356Z,114.47
2023-03-02T01:57:34.683Z,112.80
2023-03-02T02:02:37.230Z,116.03
2023-03-02T02:07:40.535Z,84.00
2023-03-02T02:12:43.821Z,107.80
2023-03-02T02:17:46.864Z,97.43
2023-03-02T02:23:10.438Z,109.87
2023-03-02T02:28:28.940Z,106.93
2023-03-02T02:33:33.239Z,99.10
2023-03-02T02:38:37.500Z,84.30
2023-03-02T02:43:40.103Z,82.00
2023-03-02T02:48:42.964Z,74.70
2023-03-02T02:53:49.149Z,72.80
2023-03-02T02:58:55.793Z,61.27
2023-03-02T03:04:03.674Z,63.53
2023-03-02T03:09:08.263Z,53.63
2023-03-02T03:14:19.878Z,54.53
2023-03-02T03:19:32.539Z,59.83
2023-03-02T03:24:36.152Z,56.53
2023-03-02T03:29:45.142Z,40.70
2023-03-02T03:34:49.408Z,48.03
2023-03-02T03:40:01.120Z,52.30
2023-03-02T03:45:06.200Z,41.27
2023-03-02T03:50:10.078Z,36.67
2023-03-02T03:55:13.540Z,50.43
2023-03-02T04:00:18.393Z,47.20
2023-03-02T04:05:34.083Z,46.40
2023-03-02T04:10:38.888Z,37.70
2023-03-02T04:15:42.331Z,32.80
2023-03-02T04:20:45.114Z,29.63
2023-03-02T04:25:48.822Z,32.50
2023-03-02T04:30:55.345Z,30.57
2023-03-02T04:35:58.708Z,24.77
2023-03-02T04:41:01.988Z,26.67
2023-03-02T04:46:04.747Z,28.00
2023-03-02T04:51:07.477Z,28.97
2023-03-02T04:56:10.125Z,30.77
2023-03-02T05:01:14.257Z,28.90
2023-03-02T05:06:17.057Z,27.13
2023-03-02T05:11:23.283Z,25.23
2023-03-02T05:16:29.172Z,26.10
2023-03-02T05:21:32.142Z,28.03
2023-03-02T05:26:35.086Z,30.60
2023-03-02T05:31:41.320Z,31.63
2023-03-02T05:36:45.336Z,27.20
2023-03-02T05:41:48.542Z,34.00
2023-03-02T05:46:51.158Z,25.80
2023-03-02T05:51:53.736Z,23.27
2023-03-02T05:56:56.306Z,30.00
2023-03-02T06:01:59.546Z,25.53
2023-03-02T06:07:02.098Z,28.80
2023-03-02T06:12:05.432Z,28.93
2023-03-02T06:17:07.998Z,29.63
2023-03-02T06:22:10.533Z,26.17
2023-03-02T06:27:13.654Z,30.70
2023-03-02T06:32:16.267Z,25.67
2023-03-02T06:37:18.988Z,31.77
2023-03-02T06:42:21.909Z,37.33
2023-03-02T06:47:24.865Z,24.70
2023-03-02T06:52:27.690Z,24.20
2023-03-02T06:57:34.284Z,31.07
2023-03-02T07:02:37.575Z,29.53
2023-03-02T07:07:41.852Z,30.47
2023-03-02T07:12:44.277Z,36.00
2023-03-02T07:17:47.238Z,31.00
2023-03-02T07:22:49.788Z,32.73
2023-03-02T07:27:52.464Z,36.40
2023-03-02T07:32:55.026Z,30.60
2023-03-02T07:37:57.528Z,27.20
2023-03-02T07:43:00.041Z,30.23
2023-03-02T07:48:02.870Z,26.10
2023-03-02T07:53:05.363Z,26.27
2023-03-02T07:58:08.236Z,23.73
2023-03-02T08:03:10.913Z,22.17
2023-03-02T08:08:13.449Z,26.93
2023-03-02T08:13:19.114Z,22.77
2023-03-02T08:18:21.669Z,25.83
2023-03-02T08:23:24.672Z,23.50
2023-03-02T08:28:27.412Z,25.40
2023-03-02T08:33:30.905Z,30.47
2023-03-02T08:38:35.793Z,23.73
2023-03-02T08:43:38.588Z,26.77
2023-03-02T08:48:41.267Z,20.07
2023-03-02T08:53:46.698Z,20.33
2023-03-02T08:58:50.204Z,20.00
2023-03-02T09:03:53.065Z,13.83
2023-03-02T09:08:56.182Z,22.03
2023-03-02T09:13:58.847Z,18.03
2023-03-02T09:19:01.393Z,20.50
2023-03-02T09:24:04.256Z,16.30
2023-03-02T09:29:07.350Z,16.83
2023-03-02T09:34:09.824Z,18.37
2023-03-02T09:39:12.621Z,18.07
2023-03-02T09:44:36.629Z,19.77
2023-03-02T09:50:05.831Z,22.67
2023-03-02T09:55:19.828Z,16.10
2023-03-02T10:00:40.544Z,18.70
2023-03-02T10:06:02.790Z,21.43
2023-03-02T10:11:18.170Z,21.70
2023-03-02T10:16:39.573Z,18.70
2023-03-02T10:21:47.519Z,18.37
2023-03-02T10:26:54.480Z,22.20
2023-03-02T10:32:13.387Z,24.03
2023-03-02T10:37:29.003Z,18.30
2023-03-02T10:42:36.980Z,19.87
2023-03-02T10:47:39.512Z,18.60
2023-03-02T10:52:59.729Z,18.47
2023-03-02T10:58:19.065Z,17.80
2023-03-02T11:03:23.058Z,19.13
2023-03-02T11:08:27.978Z,21.77
2023-03-02T11:13:37.129Z,19.50
2023-03-02T11:18:44.986Z,21.77
2023-03-02T11:24:18.561Z,21.20
2023-03-02T11:29:29.592Z,25.33
2023-03-02T11:34:49.907Z,21.87
2023-03-02T11:40:05.485Z,22.60
2023-03-02T11:45:13.992Z,21.60
2023-03-02T11:50:16.983Z,22.47
2023-03-02T11:55:23.108Z,22.83
2023-03-02T12:00:33.683Z,19.93
2023-03-02T12:05:39.993Z,14.07
2023-03-02T12:11:00.734Z,16.27
2023-03-02T12:16:22.681Z,21.37
2023-03-02T12:21:25.889Z,20.47
2023-03-02T12:26:35.189Z,12.67
2023-03-02T12:31:46.564Z,19.87
2023-03-02T12:36:50.185Z,15.97
2023-03-02T12:42:11.314Z,17.77
2023-03-02T12:47:22.087Z,19.37
2023-03-02T12:52:29.109Z,22.97
2023-03-02T12:57:32.237Z,19.23
2023-03-02T13:02:36.582Z,17.63
2023-03-02T13:07:46.001Z,19.70
2023-03-02T13:12:48.553Z,17.17
2023-03-02T13:17:59.874Z,19.90
2023-03-02T13:23:03.992Z,17.23
2023-03-02T13:28:10.058Z,18.90
2023-03-02T13:33:23.172Z,13.43
2023-03-02T13:38:31.466Z,17.10
2023-03-02T13:43:39.293Z,18.17
2023-03-02T13:48:41.833Z,16.03
2023-03-02T13:54:15.959Z,16.00
2023-03-02T13:59:21.214Z,19.73
2023-03-02T14:04:24.547Z,18.60
2023-03-02T14:09:27.384Z,16.00
2023-03-02T14:14:34.241Z,14.27
2023-03-02T14:19:36.745Z,21.33
2023-03-02T14:24:39.314Z,25.03
2023-03-02T14:29:44.268Z,23.00
2023-03-02T14:34:46.963Z,21.23
2023-03-02T14:39:53.402Z,22.63
2023-03-02T14:44:56.784Z,13.83
2023-03-02T14:49:59.226Z,17.23
2023-03-02T14:55:05.508Z,21.33
2023-03-02T15:00:12.497Z,21.20
2023-03-02T15:05:15.271Z,17.87
2023-03-02T15:10:21.595Z,23.60
2023-03-02T15:15:25.026Z,32.80
2023-03-02T15:20:28.935Z,15.40
2023-03-02T15:25:31.581Z,17.57
2023-03-02T15:30:34.173Z,20.97
2023-03-02T15:35:39.468Z,9.93
2023-03-02T15:40:41.997Z,8.43
2023-03-02T15:45:46.423Z,13.43
2023-03-02T15:51:03.090Z,20.57
2023-03-02T15:56:06.701Z,21.73
2023-03-02T16:01:12.129Z,19.00
2023-03-02T16:06:16.025Z,18.43
2023-03-02T16:11:23.306Z,17.40
2023-03-02T16:16:26.484Z,28.47
2023-03-02T16:21:29.493Z,32.33
2023-03-02T16:26:35.037Z,24.37
2023-03-02T16:31:39.226Z,34.57
2023-03-02T16:36:42.221Z,23.80
2023-03-02T16:41:46.270Z,20.40
2023-03-02T16:46:48.883Z,19.63
2023-03-02T16:51:59.413Z,16.20
2023-03-02T16:57:01.956Z,45.60
2023-03-02T17:02:04.463Z,48.07
2023-03-02T17:07:07.308Z,18.50
2023-03-02T17:12:09.928Z,23.50
2023-03-02T17:17:12.549Z,17.40
2023-03-02T17:22:15.144Z,16.53
2023-03-02T17:27:25.105Z,17.60
2023-03-02T17:32:28.380Z,18.97
2023-03-02T17:37:31.181Z,15.63
2023-03-02T17:42:33.711Z,19.50
2023-03-02T17:47:36.224Z,22.23
2023-03-02T17:52:38.748Z,25.27
2023-03-02T17:57:41.885Z,18.83
2023-03-02T18:02:44.451Z,15.90
2023-03-02T18:07:46.972Z,25.73
2023-03-02T18:12:52.266Z,30.13
2023-03-02T18:17:55.918Z,29.90
2023-03-02T18:22:58.751Z,22.70
2023-03-02T18:28:01.232Z,27.43
2023-03-02T18:33:03.884Z,27.50
2023-03-02T18:38:06.452Z,32.90
2023-03-02T18:43:09.596Z,33.83
2023-03-02T18:48:12.170Z,32.87
2023-03-02T18:53:15.283Z,26.70
2023-03-02T18:58:20.638Z,25.90
2023-03-02T19:03:24.893Z,28.93
2023-03-02T19:08:28.985Z,180.67
2023-03-02T19:13:31.710Z,36.13
2023-03-02T19:18:34.399Z,35.77
2023-03-02T19:23:37.020Z,41.63
2023-03-02T19:28:40.027Z,48.93
2023-03-02T19:33:42.744Z,46.67
2023-03-02T19:38:45.473Z,88.40
2023-03-02T19:43:48.898Z,40.80
2023-03-02T19:48:51.488Z,43.30
2023-03-02T19:53:54.820Z,41.97
2023-03-02T19:58:57.730Z,50.63
2023-03-02T20:04:00.742Z,120.67
2023-03-02T20:09:06.577Z,62.47
2023-03-02T20:14:09.288Z,41.47
2023-03-02T20:19:14.207Z,70.87
2023-03-02T20:24:17.115Z,58.27
2023-03-02T20:29:19.953Z,47.67
2023-03-02T20:34:22.597Z,40.43
2023-03-02T20:39:29.610Z,102.90
2023-03-02T20:44:32.488Z,29.60
2023-03-02T20:49:36.719Z,49.30
2023-03-02T20:54:42.470Z,39.27
2023-03-02T20:59:45.939Z,43.17
2023-03-02T21:04:48.896Z,90.37
2023-03-02T21:09:51.551Z,38.93
2023-03-02T21:14:54.352Z,38.90
2023-03-02T21:19:57.342Z,75.83
2023-03-02T21:25:00.015Z,57.63
2023-03-02T21:30:06.097Z,57.73
2023-03-02T21:35:10.048Z,57.13
2023-03-02T21:40:16.696Z,48.80
2023-03-02T21:45:19.619Z,42.27
2023-03-02T21:50:26.911Z,54.80
2023-03-02T21:55:30.940Z,53.83
2023-03-02T22:00:37.123Z,52.37
2023-03-02T22:05:39.747Z,45.43
2023-03-02T22:10:45.446Z,57.27
2023-03-02T22:15:49.265Z,55.63
2023-03-02T22:20:51.992Z,35.07
2023-03-02T22:26:00.933Z,53.13
2023-03-02T22:31:16.501Z,62.53
2023-03-02T22:36:22.729Z,57.53
2023-03-02T22:41:25.266Z,47.33
2023-03-02T22:46:27.879Z,28.40
2023-03-02T22:51:30.928Z,42.60
2023-03-02T22:56:38.403Z,36.60
2023-03-02T23:01:43.353Z,41.47
2023-03-02T23:06:55.758Z,59.73
2023-03-02T23:12:09.836Z,24.40
2023-03-02T23:17:18.449Z,55.33
2023-03-02T23:22:20.998Z,28.20
2023-03-02T23:27:24.444Z,28.77
2023-03-02T23:32:27.046Z,24.37
2023-03-02T23:37:30.033Z,37.67
2023-03-02T23:42:32.541Z,39.67
2023-03-02T23:47:35.029Z,45.80
2023-03-02T23:52:39.063Z,41.53
2023-03-02T23:57:41.523Z,47.00
